Flight Track Log - Related Links

Times and Time Zones

All times are in EDT time to prevent confusion due to time zone crossing. See the UAL312 flight status page for this flight to view local times or setup timezone preferences in your user account.

Time Position Orientation Groundspeed Altitude Reporting Facility
EDT Latitude Longitude Course Direction KTS MPH feet Rate Location/Type
Sun 05:13:15 PM 38.9833 -77.1664 293° West  Level FlightAware Approximate
Sun 05:14:16 PM 39.0833 -77.4667 360° North 247 284 6,800  Level Potomac TRACON
Sun 05:15:22 PM 39.1667 -77.4667 90° East 269 310 9,800 1,512 Climbing Potomac TRACON
Sun 05:16:23 PM 39.1667 -77.3667 109° East 332 382 10,000 902 Climbing Potomac TRACON
Sun 05:18:15 PM 39.1056 -77.1431 112° Southeast 384 442 12,400 1,570 Climbing Washington Center
Sun 05:19:15 PM 39.0594 -76.9950 92° East 413 475 14,500 2,182 Climbing Washington Center
Sun 05:20:16 PM 39.0550 -76.8425 77° East 420 483 16,800 2,132 Climbing Washington Center
Sun 05:21:16 PM 39.0814 -76.6906 78° East 420 483 18,800 1,884 Climbing Washington Center
Sun 05:22:17 PM 39.1078 -76.5278 79° East 437 503 20,600 1,678 Climbing Washington Center
Sun 05:23:14 PM 39.1317 -76.3650 79° East 453 521 22,100 1,231 Climbing Washington Center
Sun 05:24:14 PM 39.1578 -76.1967 82° East 472 543 23,000 397 Climbing Washington Center
Sun 05:25:15 PM 39.1772 -76.0200 75° East 482 555 22,900 541 Descending Washington Center
Sun 05:26:16 PM 39.2111 -75.8594 44° Northeast 482 555 24,100 1,339 Climbing Washington Center
Sun 05:27:16 PM 39.3050 -75.7417 45° Northeast 449 517 25,600 967 Climbing Washington Center
Sun 05:29:16 PM 39.4847 -75.5078 45° Northeast 501 577 27,000 467 Climbing New York Center
Sun 05:30:16 PM 39.5728 -75.3925 46° Northeast 462 532 27,000  Level New York Center
Sun 05:31:17 PM 39.6606 -75.2742 49° Northeast 455 524 27,000  Level New York Center
Sun 05:32:17 PM 39.7444 -75.1500 47° Northeast 450 518 27,000  Level New York Center
Sun 05:33:16 PM 39.8325 -75.0258 46° Northeast 455 524 27,000  Level New York Center
Sun 05:34:18 PM 39.9181 -74.9092 48° Northeast 455 524 27,000  Level New York Center
Sun 05:35:18 PM 40.0103 -74.7736 49° Northeast 449 517 27,000  Level New York Center
Sun 05:36:15 PM 40.0914 -74.6536 56° Northeast 437 503 27,000  Level New York Center
Sun 05:37:16 PM 40.1603 -74.5217 55° Northeast 437 503 27,000 -50 Level New York Center
Sun 05:38:16 PM 40.2333 -74.3869 55° Northeast 442 509 26,900 -149 Descending New York Center
Sun 05:39:17 PM 40.3061 -74.2519 56° Northeast 447 514 26,700 -347 Descending New York Center
Sun 05:40:17 PM 40.3789 -74.1086 55° Northeast 453 521 26,200 -508 Descending New York Center
Sun 05:41:15 PM 40.4517 -73.9731 56° Northeast 453 521 25,700 -504 Descending New York Center
Sun 05:42:16 PM 40.5239 -73.8344 58° Northeast 453 521 25,200 -942 Descending New York Center
Sun 05:43:16 PM 40.5922 -73.6925 55° Northeast 453 521 23,800 -1,438 Descending New York Center
Sun 05:44:17 PM 40.6622 -73.5589 53° Northeast 448 516 22,300 -1,455 Descending New York Center
Sun 05:46:38 PM 40.8261 -73.2656 40° Northeast 414 476 18,900 -985 Descending Boston Center
Sun 05:47:38 PM 40.9058 -73.1761 42° Northeast 386 444 19,000 -200 Climbing Boston Center
Sun 05:48:38 PM 40.9836 -73.0833 41° Northeast 374 430 18,500 -650 Descending Boston Center
Sun 05:49:38 PM 41.0611 -72.9933 41° Northeast 374 430 17,700 -1,050 Descending Boston Center
Sun 05:50:38 PM 41.1364 -72.9058 41° Northeast 363 418 16,400 -1,878 Descending Boston Center
Sun 05:51:33 PM 41.1972 -72.8344 37° Northeast 341 392 14,100 -2,500 Descending Boston Center
Sun 05:52:38 PM 41.2808 -72.7494 24° Northeast 339 390 11,400 -1,587 Descending Boston Center
Sun 05:53:34 PM 41.3497 -72.7083 353° North 288 331 10,900 -718 Descending Boston Center
Sun 05:54:35 PM 41.4206 -72.7197 352° North 255 293 10,000 -1,082 Descending Boston Center
Sun 05:55:36 PM 41.4956 -72.7339 27° Northeast 252 290 8,700 -1,377 Descending Boston Center
Sun 05:56:37 PM 41.5603 -72.6897 32° Northeast 272 313 7,200 -1,438 Descending Boston Center
Sun 05:57:37 PM 41.6228 -72.6372 31° Northeast 266 306 5,800 -1,438 Descending Boston Center
Sun 05:58:38 PM 41.6875 -72.5847 32° Northeast 265 305 4,300 -1,488 Descending Boston Center
Sun 05:59:38 PM 41.7397 -72.5403 10° North 255 293 2,800 -850 Descending Boston Center
Sun 06:00:45 PM 41.8128 -72.5236 10° North 229 264 2,500 -269 Descending Boston Center

Login

Don't have an account? Register now (free) for customized features, flight alerts, and more!